Time;durP1;ratioP1;P1;durP2;ratioP2;P2;SDS_P1;SDS_P2;PMS_P1;PMS_P2;Temp;Humidity;BMP_temperature;BMP_pressure;BME280_temperature;BME280_humidity;BME280_pressure;Samples;Min_cycle;Max_cycle;Signal;HPM_P1;HPM_P2
2022/07/29 00:00:46;;;;;;;6.33;3.80;;;14.40;99.90;;;;;;5068311;28;20436;-84
2022/07/29 00:03:12;;;;;;;5.60;3.80;;;14.30;99.90;;;;;;5064882;28;20394;-84
2022/07/29 00:05:40;;;;;;;7.22;3.78;;;14.40;99.90;;;;;;5051367;28;20401;-84
2022/07/29 00:08:06;;;;;;;4.40;3.50;;;14.40;99.90;;;;;;5052336;28;20418;-83
2022/07/29 00:10:32;;;;;;;6.07;3.92;;;14.30;99.90;;;;;;5063795;28;20433;-83
2022/07/29 00:12:58;;;;;;;8.80;4.00;;;14.20;99.90;;;;;;5039992;28;20909;-83
2022/07/29 00:15:23;;;;;;;7.38;4.03;;;14.20;99.90;;;;;;5050849;28;20391;-83
2022/07/29 00:17:49;;;;;;;18.33;4.95;;;14.20;99.90;;;;;;5052474;28;20459;-83
2022/07/29 00:20:15;;;;;;;8.93;4.30;;;14.20;99.90;;;;;;5044583;28;20409;-83
2022/07/29 00:22:41;;;;;;;7.80;4.00;;;14.20;99.90;;;;;;5045509;28;20411;-85
2022/07/29 00:25:07;;;;;;;7.63;4.10;;;14.20;99.90;;;;;;5045796;28;20413;-84
2022/07/29 00:27:34;;;;;;;7.33;4.20;;;14.10;99.90;;;;;;5066418;28;20466;-83
2022/07/29 00:30:00;;;;;;;6.80;4.53;;;14.00;99.90;;;;;;5051849;28;20385;-84
2022/07/29 00:32:26;;;;;;;9.43;4.15;;;14.00;99.90;;;;;;5066688;28;20382;-83
2022/07/29 00:37:36;;;;;;;7.88;4.40;;;14.00;99.90;;;;;;5064854;28;20717;-85
2022/07/29 00:40:03;;;;;;;5.60;4.22;;;14.10;99.90;;;;;;5052031;28;20374;-83
2022/07/29 00:42:28;;;;;;;5.72;4.20;;;14.10;99.90;;;;;;5068854;28;20535;-84
2022/07/29 00:44:54;;;;;;;7.88;4.22;;;14.10;99.90;;;;;;5068741;28;20465;-83
2022/07/29 00:47:19;;;;;;;6.87;4.33;;;14.00;99.90;;;;;;5051352;28;20390;-83
2022/07/29 00:49:45;;;;;;;6.07;4.40;;;14.00;99.90;;;;;;5051749;28;20466;-84
2022/07/29 00:52:12;;;;;;;8.00;4.90;;;14.00;99.90;;;;;;5051621;28;20390;-83
2022/07/29 00:54:39;;;;;;;7.68;4.20;;;14.00;99.90;;;;;;5069922;28;20452;-83
2022/07/29 00:57:07;;;;;;;6.32;4.32;;;14.00;99.90;;;;;;5066711;28;20456;-85
2022/07/29 00:59:33;;;;;;;6.55;4.32;;;13.90;99.90;;;;;;5051735;28;20386;-84
2022/07/29 01:01:59;;;;;;;8.00;4.85;;;13.80;99.90;;;;;;5069499;28;20907;-83
2022/07/29 01:04:25;;;;;;;8.95;4.63;;;13.80;99.90;;;;;;5051565;28;20367;-82
2022/07/29 01:06:53;;;;;;;8.68;4.85;;;13.80;99.90;;;;;;5051384;28;20484;-84
2022/07/29 01:09:19;;;;;;;7.82;4.35;;;13.80;99.90;;;;;;5051743;28;20374;-83
2022/07/29 01:11:47;;;;;;;7.80;4.50;;;13.80;99.90;;;;;;5067147;28;20436;-84
2022/07/29 01:14:14;;;;;;;5.03;4.20;;;13.70;99.90;;;;;;5051987;28;20717;-85
2022/07/29 01:16:51;;;;;;;6.97;4.70;;;13.70;99.90;;;;;;5053676;28;20444;-84
2022/07/29 01:19:40;;;;;;;7.03;4.53;;;13.80;99.90;;;;;;5068660;28;20373;-84
2022/07/29 01:22:27;;;;;;;6.18;4.38;;;13.70;99.90;;;;;;5066805;28;20899;-84
2022/07/29 01:24:56;;;;;;;8.52;4.60;;;13.70;99.90;;;;;;5067881;28;20374;-84
2022/07/29 01:27:52;;;;;;;7.77;4.70;;;13.70;99.90;;;;;;5069016;28;20374;-84
2022/07/29 01:30:18;;;;;;;8.07;4.60;;;13.70;99.90;;;;;;5069034;28;20375;-84
2022/07/29 01:32:48;;;;;;;6.70;4.20;;;13.70;99.90;;;;;;5066685;28;20386;-84
2022/07/29 01:35:22;;;;;;;5.22;4.00;;;13.70;99.90;;;;;;5064310;28;20419;-83
2022/07/29 01:38:01;;;;;;;5.93;4.60;;;13.80;99.90;;;;;;5050658;28;20420;-84
2022/07/29 01:40:43;;;;;;;6.78;4.18;;;13.70;99.90;;;;;;5068686;28;20386;-83
2022/07/29 01:43:35;;;;;;;8.65;4.80;;;13.60;99.90;;;;;;5051661;28;20397;-84
2022/07/29 01:46:05;;;;;;;6.25;4.30;;;13.50;99.90;;;;;;5067870;28;20390;-83
2022/07/29 01:48:42;;;;;;;7.78;4.38;;;13.50;99.90;;;;;;5051131;28;20427;-84
2022/07/29 01:51:34;;;;;;;6.65;4.30;;;13.50;99.90;;;;;;5050496;28;20398;-85
2022/07/29 01:54:16;;;;;;;7.72;4.80;;;13.50;99.90;;;;;;5066932;28;20465;-84
2022/07/29 01:56:44;;;;;;;8.90;4.30;;;13.50;99.90;;;;;;5055298;28;20465;-85
2022/07/29 01:59:11;;;;;;;8.68;4.00;;;13.50;99.90;;;;;;5073485;28;20374;-84
2022/07/29 02:01:40;;;;;;;9.63;5.00;;;13.60;99.90;;;;;;5073635;28;20399;-83
2022/07/29 02:04:09;;;;;;;6.47;4.10;;;13.60;99.90;;;;;;5055697;28;20405;-82
2022/07/29 02:06:38;;;;;;;7.32;4.00;;;13.50;99.90;;;;;;5055033;28;20401;-84
2022/07/29 02:09:05;;;;;;;7.07;4.55;;;13.50;99.90;;;;;;5073097;28;20902;-84
2022/07/29 02:11:35;;;;;;;6.70;4.05;;;13.40;99.90;;;;;;5073315;28;20424;-83
2022/07/29 02:14:02;;;;;;;10.10;4.43;;;13.50;99.90;;;;;;5055401;28;20898;-83
2022/07/29 02:16:32;;;;;;;7.10;3.90;;;13.40;99.90;;;;;;5055139;28;20423;-84
2022/07/29 02:19:01;;;;;;;5.97;3.90;;;13.50;99.90;;;;;;5055208;28;20370;-83
2022/07/29 02:21:27;;;;;;;7.60;4.32;;;13.50;99.90;;;;;;5054496;28;20484;-83
2022/07/29 02:23:55;;;;;;;6.47;3.90;;;13.50;99.90;;;;;;5055058;28;20381;-84
2022/07/29 02:26:24;;;;;;;6.97;4.45;;;13.50;99.90;;;;;;5072854;28;20868;-84
2022/07/29 02:28:52;;;;;;;8.88;4.15;;;13.40;99.90;;;;;;5055402;28;20375;-83
2022/07/29 02:31:23;;;;;;;7.00;4.30;;;13.50;99.90;;;;;;5055088;28;20363;-85
2022/07/29 02:33:50;;;;;;;7.43;4.50;;;13.50;99.90;;;;;;5073251;28;20605;-83
2022/07/29 02:36:16;;;;;;;5.67;4.23;;;13.50;99.90;;;;;;5054850;28;20390;-83
2022/07/29 02:38:53;;;;;;;5.90;4.40;;;13.50;99.90;;;;;;5072705;28;20374;-84
2022/07/29 02:41:33;;;;;;;7.15;4.00;;;13.50;99.90;;;;;;5072631;28;20412;-83
2022/07/29 02:44:09;;;;;;;6.10;4.03;;;13.50;99.90;;;;;;5054911;28;20759;-83
2022/07/29 02:46:38;;;;;;;5.47;4.40;;;13.60;99.90;;;;;;5072803;28;20435;-83
2022/07/29 02:49:31;;;;;;;5.82;4.38;;;13.60;99.90;;;;;;5054538;28;20389;-83
2022/07/29 02:52:08;;;;;;;8.63;4.25;;;13.60;99.90;;;;;;5054286;28;20416;-84
2022/07/29 02:54:55;;;;;;;7.40;4.60;;;13.60;99.90;;;;;;5072713;28;20382;-83
2022/07/29 02:57:30;;;;;;;6.18;4.28;;;13.70;99.90;;;;;;5054111;28;20382;-83
2022/07/29 03:00:00;;;;;;;6.60;4.30;;;13.70;99.90;;;;;;5072530;28;20929;-82
2022/07/29 03:02:28;;;;;;;7.32;3.88;;;13.70;99.90;;;;;;5054471;28;20406;-83
2022/07/29 03:04:57;;;;;;;5.80;4.30;;;13.70;99.90;;;;;;5072522;28;20367;-84
2022/07/29 03:07:23;;;;;;;8.07;4.40;;;13.70;99.90;;;;;;5071046;28;20447;-82
2022/07/29 03:09:50;;;;;;;8.15;4.35;;;13.60;99.90;;;;;;5048951;28;20895;-83
2022/07/29 03:12:16;;;;;;;6.33;4.33;;;13.70;99.90;;;;;;5054015;28;20755;-84
2022/07/29 03:14:43;;;;;;;7.80;3.85;;;13.70;99.90;;;;;;5054222;28;20371;-82
2022/07/29 03:17:10;;;;;;;5.47;4.20;;;13.70;99.90;;;;;;5072072;28;20956;-83
2022/07/29 03:19:36;;;;;;;8.90;4.17;;;13.70;99.90;;;;;;5071811;28;20539;-84
2022/07/29 03:22:02;;;;;;;6.90;4.60;;;13.60;99.90;;;;;;5071977;28;20496;-83
2022/07/29 03:24:33;;;;;;;10.32;4.10;;;13.50;99.90;;;;;;5054038;28;20378;-83
2022/07/29 03:26:59;;;;;;;7.00;4.20;;;13.60;99.90;;;;;;5071374;28;20381;-84
2022/07/29 03:29:25;;;;;;;7.27;4.70;;;13.60;99.90;;;;;;5053929;28;20832;-83
2022/07/29 03:31:51;;;;;;;6.53;4.40;;;13.50;99.90;;;;;;5054159;28;20469;-84
2022/07/29 03:34:17;;;;;;;6.17;4.50;;;13.50;99.90;;;;;;5053942;28;20370;-82
2022/07/29 03:36:42;;;;;;;5.90;4.00;;;13.50;99.90;;;;;;5071347;28;20398;-83
2022/07/29 03:39:10;;;;;;;8.82;4.25;;;13.60;99.90;;;;;;5053481;28;20385;-83
2022/07/29 03:41:38;;;;;;;9.05;4.05;;;13.60;99.90;;;;;;5053699;28;20406;-83
2022/07/29 03:44:06;;;;;;;8.02;4.00;;;13.60;99.90;;;;;;5071387;28;20381;-84
2022/07/29 03:46:35;;;;;;;5.43;3.75;;;13.60;99.90;;;;;;5053408;28;20860;-84
2022/07/29 03:49:04;;;;;;;5.00;3.88;;;13.60;99.90;;;;;;5070974;28;20451;-83
2022/07/29 03:51:30;;;;;;;7.03;4.18;;;13.50;99.90;;;;;;5071008;28;20377;-83
2022/07/29 03:53:56;;;;;;;5.97;3.92;;;13.50;99.90;;;;;;5053540;28;20729;-83
2022/07/29 03:56:23;;;;;;;6.97;4.10;;;13.60;99.90;;;;;;5071403;28;20872;-82
2022/07/29 03:58:53;;;;;;;6.50;3.90;;;13.50;99.90;;;;;;5070798;28;20876;-84
2022/07/29 04:01:20;;;;;;;6.82;3.67;;;13.50;99.90;;;;;;5071361;28;20397;-83
2022/07/29 04:03:46;;;;;;;7.32;4.03;;;13.40;99.90;;;;;;5053319;28;20375;-83
2022/07/29 04:06:12;;;;;;;8.60;4.00;;;13.50;99.90;;;;;;5053374;28;20377;-83
2022/07/29 04:08:38;;;;;;;5.95;4.25;;;13.50;99.90;;;;;;5052622;28;20798;-83
2022/07/29 04:11:04;;;;;;;7.20;4.40;;;13.50;99.90;;;;;;5070864;28;20719;-84
2022/07/29 04:13:31;;;;;;;12.55;4.22;;;13.60;99.90;;;;;;5053218;28;20369;-84
2022/07/29 04:15:57;;;;;;;7.35;4.55;;;13.70;99.90;;;;;;5071078;28;20378;-83
2022/07/29 04:18:23;;;;;;;6.60;4.22;;;13.70;99.90;;;;;;5051757;28;20852;-82
2022/07/29 04:20:49;;;;;;;7.32;4.22;;;13.60;99.90;;;;;;5052611;28;20485;-82
2022/07/29 04:23:15;;;;;;;4.53;3.63;;;13.60;99.90;;;;;;5070516;28;20478;-84
2022/07/29 04:25:42;;;;;;;7.27;4.00;;;13.70;99.90;;;;;;5052967;28;20385;-83
2022/07/29 04:28:09;;;;;;;10.87;4.20;;;13.80;99.90;;;;;;5070290;28;20386;-83
2022/07/29 04:30:36;;;;;;;8.15;4.10;;;13.80;99.90;;;;;;5052017;28;20426;-84
2022/07/29 04:33:04;;;;;;;5.05;4.00;;;14.00;99.90;;;;;;5070845;28;20389;-83
2022/07/29 04:35:33;;;;;;;6.80;3.78;;;14.00;99.90;;;;;;5052597;28;20508;-84
2022/07/29 04:37:58;;;;;;;4.88;3.45;;;14.10;99.90;;;;;;5069867;28;20409;-83
2022/07/29 04:40:24;;;;;;;15.38;4.57;;;14.20;99.90;;;;;;5052694;28;20885;-84
2022/07/29 04:42:50;;;;;;;7.40;3.87;;;14.30;99.90;;;;;;5052688;28;20394;-83
2022/07/29 04:45:15;;;;;;;7.18;3.83;;;14.30;99.90;;;;;;5070743;28;20371;-83
2022/07/29 04:47:41;;;;;;;7.33;3.77;;;14.40;99.90;;;;;;5070311;28;20457;-83
2022/07/29 04:50:08;;;;;;;5.20;3.42;;;14.60;99.90;;;;;;5052583;28;20414;-84
2022/07/29 04:52:35;;;;;;;6.90;3.58;;;14.60;99.90;;;;;;5052144;28;20814;-83
2022/07/29 04:55:01;;;;;;;4.90;3.57;;;14.80;99.90;;;;;;5052427;28;20811;-83
2022/07/29 04:57:26;;;;;;;6.22;3.53;;;14.90;99.90;;;;;;5070240;28;20863;-83
2022/07/29 04:59:52;;;;;;;5.63;3.60;;;15.00;99.90;;;;;;5070586;28;20382;-83
2022/07/29 05:02:18;;;;;;;5.25;3.30;;;15.10;99.90;;;;;;5070277;28;20833;-83
2022/07/29 05:04:43;;;;;;;7.40;3.70;;;15.20;99.90;;;;;;5070512;28;20947;-84
2022/07/29 05:07:09;;;;;;;6.72;3.42;;;15.20;99.90;;;;;;5052156;28;20389;-84
2022/07/29 05:09:35;;;;;;;5.23;3.10;;;15.30;99.90;;;;;;5070192;28;20378;-84
2022/07/29 05:12:00;;;;;;;5.43;3.22;;;15.40;99.90;;;;;;5070430;28;20461;-85
2022/07/29 05:14:26;;;;;;;7.07;3.60;;;15.40;99.90;;;;;;5052257;28;20871;-82
2022/07/29 05:16:52;;;;;;;7.15;3.55;;;15.50;99.90;;;;;;5052294;28;20382;-84
2022/07/29 05:19:18;;;;;;;5.88;3.63;;;15.60;99.90;;;;;;5051702;28;20382;-84
2022/07/29 05:21:47;;;;;;;32.88;6.18;;;15.60;99.90;;;;;;5070002;28;20412;-84
2022/07/29 05:24:13;;;;;;;7.80;3.60;;;15.60;99.90;;;;;;5052471;28;20378;-84
2022/07/29 05:26:39;;;;;;;4.22;3.22;;;15.60;99.90;;;;;;5052468;28;20451;-85
2022/07/29 05:29:05;;;;;;;7.03;3.85;;;15.60;99.90;;;;;;5051963;28;20382;-85
2022/07/29 05:31:30;;;;;;;4.60;3.30;;;15.50;99.90;;;;;;5056085;28;20382;-84
2022/07/29 05:33:56;;;;;;;7.30;3.70;;;15.50;99.90;;;;;;5074082;28;20416;-85
2022/07/29 05:36:22;;;;;;;4.68;3.17;;;15.60;99.90;;;;;;5073900;28;20366;-85
2022/07/29 05:38:47;;;;;;;5.77;3.27;;;15.90;99.90;;;;;;5055973;28;20748;-83
2022/07/29 05:41:13;;;;;;;7.05;3.70;;;15.70;99.90;;;;;;5073880;28;20795;-84
2022/07/29 05:43:38;;;;;;;4.30;3.20;;;15.80;99.90;;;;;;5073727;28;20784;-84
2022/07/29 05:46:04;;;;;;;6.22;3.20;;;15.70;99.90;;;;;;5056045;28;20370;-84
2022/07/29 05:48:30;;;;;;;6.63;3.23;;;15.80;99.90;;;;;;5073425;28;20393;-84
2022/07/29 05:50:55;;;;;;;5.35;2.83;;;15.90;99.90;;;;;;5055829;28;20764;-84
2022/07/29 05:53:21;;;;;;;6.77;3.20;;;16.00;99.90;;;;;;5055556;28;20393;-85
2022/07/29 05:55:48;;;;;;;5.47;3.22;;;16.00;99.90;;;;;;5055909;28;20377;-85
2022/07/29 05:58:13;;;;;;;4.82;2.90;;;16.10;99.90;;;;;;5073592;28;20386;-85
2022/07/29 06:00:39;;;;;;;5.70;3.37;;;16.20;99.90;;;;;;5073571;28;20385;-84
2022/07/29 06:03:05;;;;;;;5.68;3.10;;;16.40;99.90;;;;;;5073444;28;20473;-84
2022/07/29 06:05:31;;;;;;;8.37;3.20;;;16.50;99.90;;;;;;5073892;28;20529;-84
2022/07/29 06:07:56;;;;;;;6.30;3.45;;;16.60;99.90;;;;;;5073364;28;20605;-84
2022/07/29 06:10:22;;;;;;;6.28;3.38;;;16.60;99.90;;;;;;5055849;28;20378;-85
2022/07/29 06:12:48;;;;;;;5.77;3.27;;;16.70;99.90;;;;;;5073585;28;20374;-84
2022/07/29 06:15:13;;;;;;;9.73;3.72;;;16.70;99.90;;;;;;5055604;28;20374;-84
2022/07/29 06:17:39;;;;;;;6.77;3.33;;;16.90;99.90;;;;;;5055583;28;20469;-84
2022/07/29 06:20:05;;;;;;;6.97;3.15;;;17.00;99.90;;;;;;5072978;28;20415;-83
2022/07/29 06:22:31;;;;;;;4.90;3.50;;;17.20;99.90;;;;;;5055150;28;20926;-83
2022/07/29 06:24:56;;;;;;;6.13;3.17;;;17.30;99.90;;;;;;5073072;28;20386;-85
2022/07/29 06:27:22;;;;;;;5.00;2.60;;;17.30;99.90;;;;;;5073108;28;20389;-83
2022/07/29 06:29:47;;;;;;;5.50;2.87;;;17.50;99.90;;;;;;5073410;28;20375;-84
2022/07/29 06:32:13;;;;;;;22.20;4.18;;;17.70;99.90;;;;;;5073216;28;20778;-84
2022/07/29 06:34:39;;;;;;;6.07;2.93;;;17.90;99.90;;;;;;5054866;28;20374;-83
2022/07/29 06:37:08;;;;;;;5.57;2.85;;;17.90;99.90;;;;;;5072898;28;20465;-86
2022/07/29 06:39:36;;;;;;;4.90;2.85;;;18.10;99.90;;;;;;5054486;28;20407;-84
2022/07/29 06:42:03;;;;;;;8.47;2.87;;;18.30;99.90;;;;;;5053680;28;20422;-85
2022/07/29 06:44:29;;;;;;;4.60;2.70;;;18.50;99.90;;;;;;5054814;28;20396;-84
2022/07/29 06:46:55;;;;;;;6.83;2.70;;;18.90;99.90;;;;;;5054879;28;20440;-84
2022/07/29 06:49:21;;;;;;;6.17;2.90;;;19.40;99.90;;;;;;5054677;28;20461;-84
2022/07/29 06:51:47;;;;;;;31.90;5.95;;;19.90;99.90;;;;;;5072633;28;20564;-85
2022/07/29 06:54:12;;;;;;;8.82;2.88;;;20.20;99.90;;;;;;5072850;28;20742;-86
2022/07/29 06:56:41;;;;;;;10.80;3.37;;;20.30;99.90;;;;;;5054773;28;20382;-86
2022/07/29 06:59:11;;;;;;;5.03;2.63;;;20.60;99.90;;;;;;5053236;28;20409;-85
2022/07/29 07:01:42;;;;;;;7.45;2.83;;;21.10;99.90;;;;;;5052378;28;20414;-85
2022/07/29 07:04:10;;;;;;;5.50;2.78;;;21.40;99.90;;;;;;5070521;28;20390;-85
2022/07/29 07:06:36;;;;;;;30.75;4.63;;;21.80;99.90;;;;;;5071100;28;20375;-85
2022/07/29 07:09:02;;;;;;;21.25;3.60;;;22.30;99.90;;;;;;5071420;28;20431;-85
2022/07/29 07:11:28;;;;;;;6.20;2.40;;;22.70;99.90;;;;;;5075941;28;20385;-84
2022/07/29 07:13:54;;;;;;;18.92;4.30;;;22.80;99.90;;;;;;5072687;28;20382;-85
2022/07/29 07:16:19;;;;;;;26.15;4.22;;;22.90;99.90;;;;;;5072037;28;20379;-84
2022/07/29 07:18:45;;;;;;;5.50;2.63;;;22.90;99.90;;;;;;5071732;28;20397;-84
2022/07/29 07:21:12;;;;;;;10.37;2.70;;;23.30;99.90;;;;;;5071605;28;20394;-85
2022/07/29 07:23:37;;;;;;;7.68;2.42;;;23.20;99.90;;;;;;5070824;28;20378;-86
2022/07/29 07:26:04;;;;;;;6.38;2.58;;;23.00;99.90;;;;;;5071867;28;20385;-84
2022/07/29 07:28:30;;;;;;;15.15;3.70;;;22.80;99.60;;;;;;5053628;28;20485;-83
2022/07/29 07:30:56;;;;;;;10.50;3.03;;;22.70;99.90;;;;;;5049459;28;20493;-88
2022/07/29 07:33:21;;;;;;;6.95;2.70;;;22.90;99.90;;;;;;5070244;28;20377;-84
2022/07/29 07:35:47;;;;;;;5.78;2.60;;;23.00;99.90;;;;;;5052348;28;20418;-85
2022/07/29 07:38:13;;;;;;;4.40;2.13;;;23.30;99.90;;;;;;5053060;28;20424;-83
2022/07/29 07:40:39;;;;;;;9.30;2.67;;;23.60;99.80;;;;;;5052514;28;20378;-84
2022/07/29 07:43:05;;;;;;;9.80;2.97;;;23.90;99.30;;;;;;5070813;28;20402;-83
2022/07/29 07:45:32;;;;;;;7.17;2.60;;;24.00;98.70;;;;;;5054056;28;20369;-83
2022/07/29 07:47:58;;;;;;;22.98;4.40;;;24.10;98.20;;;;;;5072809;28;20370;-86
2022/07/29 07:50:24;;;;;;;5.47;2.30;;;24.10;98.20;;;;;;5073053;28;20374;-85
2022/07/29 07:52:52;;;;;;;5.18;2.38;;;24.10;97.60;;;;;;5057600;28;20902;-86
2022/07/29 07:55:18;;;;;;;7.40;2.70;;;24.20;97.70;;;;;;5053708;28;20397;-84
2022/07/29 07:57:44;;;;;;;7.90;3.00;;;24.20;97.90;;;;;;5054397;28;20377;-85
2022/07/29 08:00:12;;;;;;;5.97;2.55;;;24.00;97.40;;;;;;5072347;28;20374;-85
2022/07/29 08:02:39;;;;;;;6.07;2.38;;;23.70;97.90;;;;;;5053731;28;20398;-86
2022/07/29 08:05:06;;;;;;;9.05;2.78;;;23.50;97.70;;;;;;5054121;28;20370;-84
2022/07/29 08:07:32;;;;;;;10.20;2.90;;;23.40;98.70;;;;;;5071125;28;20393;-86
2022/07/29 08:09:59;;;;;;;32.55;4.47;;;23.60;98.60;;;;;;5053273;28;20404;-85
2022/07/29 08:12:25;;;;;;;6.65;2.75;;;23.90;97.90;;;;;;5072063;28;20478;-84
2022/07/29 08:14:51;;;;;;;4.70;2.20;;;24.00;96.80;;;;;;5053974;28;21017;-85
2022/07/29 08:17:16;;;;;;;6.82;2.60;;;24.00;97.60;;;;;;5071690;28;20381;-85
2022/07/29 08:19:42;;;;;;;5.00;2.40;;;24.10;97.80;;;;;;5057006;28;20398;-85
2022/07/29 08:22:07;;;;;;;9.63;3.07;;;24.20;97.40;;;;;;5070524;28;20405;-86
2022/07/29 08:24:52;;;;;;;10.27;2.80;;;24.20;96.40;;;;;;5053662;28;20378;-85
2022/07/29 08:27:19;;;;;;;8.60;2.73;;;24.40;97.30;;;;;;5049855;28;20390;-84
2022/07/29 08:29:44;;;;;;;5.85;2.58;;;24.20;95.90;;;;;;5049202;28;20407;-86
2022/07/29 08:32:10;;;;;;;7.32;2.70;;;24.10;96.00;;;;;;5050295;28;20407;-84
2022/07/29 08:34:36;;;;;;;8.50;2.88;;;24.10;96.90;;;;;;5032757;28;20391;-86
2022/07/29 08:37:01;;;;;;;4.93;2.23;;;24.30;95.70;;;;;;5050969;28;20908;-84
2022/07/29 08:39:27;;;;;;;6.47;2.30;;;24.40;95.90;;;;;;5052847;28;20406;-84
2022/07/29 08:41:54;;;;;;;8.55;2.30;;;24.40;96.00;;;;;;5069834;28;20492;-85
2022/07/29 08:44:21;;;;;;;5.57;2.80;;;24.60;95.60;;;;;;5059371;28;20406;-85
2022/07/29 08:46:47;;;;;;;6.15;2.60;;;24.70;95.60;;;;;;5090428;28;20368;-85
2022/07/29 08:49:14;;;;;;;10.60;2.78;;;24.80;96.20;;;;;;5072146;28;20368;-85
2022/07/29 08:51:41;;;;;;;6.60;2.22;;;25.20;95.50;;;;;;5090137;28;20808;-87
2022/07/29 08:54:09;;;;;;;13.18;3.17;;;25.60;94.70;;;;;;5069301;28;20417;-84
2022/07/29 08:56:35;;;;;;;40.15;5.30;;;25.80;93.20;;;;;;5078514;28;20392;-85
2022/07/29 08:59:04;;;;;;;6.23;2.20;;;26.00;93.30;;;;;;5055762;28;20417;-85
2022/07/29 09:01:32;;;;;;;3.72;1.98;;;26.30;92.70;;;;;;5062974;28;20383;-85
2022/07/29 09:04:00;;;;;;;5.13;2.22;;;26.30;92.20;;;;;;5064192;28;20384;-84
2022/07/29 09:06:34;;;;;;;7.22;2.00;;;26.30;91.70;;;;;;5056405;28;20445;-85
2022/07/29 09:09:29;;;;;;;5.03;2.00;;;26.10;91.70;;;;;;5062952;28;20471;-85
2022/07/29 09:11:54;;;;;;;4.75;1.80;;;26.20;90.90;;;;;;5043602;28;20421;-87
2022/07/29 09:14:20;;;;;;;7.67;2.13;;;26.30;91.20;;;;;;5054457;28;20376;-85
2022/07/29 09:16:55;;;;;;;24.70;3.80;;;26.40;90.90;;;;;;5070156;28;20380;-83
2022/07/29 09:19:36;;;;;;;11.05;2.65;;;26.60;90.30;;;;;;5066520;28;20388;-84
2022/07/29 09:22:06;;;;;;;8.70;2.10;;;26.90;90.80;;;;;;5047685;28;20430;-84
2022/07/29 09:24:40;;;;;;;3.20;2.00;;;26.80;87.90;;;;;;5050523;28;20929;-85
2022/07/29 09:27:20;;;;;;;4.75;2.05;;;26.70;85.60;;;;;;5051085;28;21185;-84
2022/07/29 09:29:46;;;;;;;6.05;1.88;;;26.70;86.50;;;;;;5052255;28;20382;-86
2022/07/29 09:32:12;;;;;;;4.70;1.80;;;26.70;84.90;;;;;;5069515;28;20402;-86
2022/07/29 09:34:38;;;;;;;12.23;2.55;;;26.80;85.90;;;;;;5051836;28;20409;-83
2022/07/29 09:37:08;;;;;;;4.83;2.10;;;27.00;86.10;;;;;;5069904;28;20424;-84
2022/07/29 09:39:37;;;;;;;14.15;2.90;;;27.20;85.40;;;;;;5052418;28;20386;-84
2022/07/29 09:42:05;;;;;;;4.30;1.85;;;27.40;82.80;;;;;;5051849;28;20444;-83
2022/07/29 09:44:48;;;;;;;4.97;1.90;;;27.60;81.10;;;;;;5053493;28;20800;-84
2022/07/29 09:47:15;;;;;;;8.20;2.10;;;27.40;80.50;;;;;;5070790;28;20392;-84
2022/07/29 09:49:57;;;;;;;4.25;1.90;;;27.30;80.20;;;;;;5072162;28;20749;-87
2022/07/29 09:52:24;;;;;;;4.63;1.92;;;27.30;81.20;;;;;;5051850;28;20417;-84
2022/07/29 09:54:50;;;;;;;6.65;2.10;;;27.30;79.40;;;;;;5070261;28;20468;-85
2022/07/29 09:57:28;;;;;;;4.10;1.90;;;27.40;80.40;;;;;;5051416;28;20485;-85
2022/07/29 09:59:58;;;;;;;29.55;4.10;;;27.40;77.40;;;;;;5070015;28;20378;-84
2022/07/29 10:02:31;;;;;;;31.08;3.22;;;27.50;76.60;;;;;;5051758;28;20457;-84
2022/07/29 10:04:59;;;;;;;4.20;2.15;;;27.60;75.70;;;;;;5052483;28;20414;-84
2022/07/29 10:07:25;;;;;;;3.47;1.65;;;27.50;75.70;;;;;;5069831;28;20404;-84
2022/07/29 10:09:56;;;;;;;4.60;1.63;;;27.60;74.20;;;;;;5052148;28;20382;-85
2022/07/29 10:12:23;;;;;;;14.07;2.80;;;27.60;73.80;;;;;;5051792;28;20434;-86
2022/07/29 10:14:50;;;;;;;3.63;1.73;;;27.70;74.00;;;;;;5052039;28;20462;-87
2022/07/29 10:17:18;;;;;;;3.78;1.30;;;28.00;74.10;;;;;;5053788;28;20719;-85
2022/07/29 10:19:44;;;;;;;4.85;1.63;;;28.00;70.90;;;;;;5056051;28;20379;-86
2022/07/29 10:22:10;;;;;;;4.78;1.88;;;28.00;71.10;;;;;;5073854;28;20394;-85
2022/07/29 10:24:38;;;;;;;7.15;1.92;;;27.70;72.20;;;;;;5056491;28;20377;-85
2022/07/29 10:27:07;;;;;;;11.23;2.28;;;27.60;71.20;;;;;;5055321;28;20405;-87
2022/07/29 10:29:32;;;;;;;7.57;2.00;;;27.70;72.60;;;;;;5054144;28;20394;-84
2022/07/29 10:32:14;;;;;;;2.53;1.50;;;27.80;72.10;;;;;;5053618;28;20420;-86
2022/07/29 10:34:57;;;;;;;3.50;1.77;;;27.80;72.80;;;;;;5053667;28;20394;-84
2022/07/29 10:37:56;;;;;;;4.32;1.70;;;28.00;72.40;;;;;;5053767;28;20826;-85
2022/07/29 10:43:41;;;;;;;4.03;1.60;;;27.60;70.50;;;;;;5072636;28;20431;-87
2022/07/29 10:46:07;;;;;;;2.97;1.60;;;27.60;71.20;;;;;;5078144;28;20378;-85
2022/07/29 10:48:33;;;;;;;9.98;2.25;;;27.70;70.90;;;;;;5067024;28;20364;-87
2022/07/29 10:51:04;;;;;;;4.20;1.75;;;27.80;70.10;;;;;;5066229;28;20404;-84
2022/07/29 10:53:48;;;;;;;4.13;1.70;;;28.00;70.50;;;;;;5062690;28;20388;-87
2022/07/29 10:56:25;;;;;;;30.33;4.45;;;28.00;70.70;;;;;;5066446;28;20402;-87
2022/07/29 10:59:19;;;;;;;4.32;1.50;;;28.10;70.80;;;;;;5064107;28;20402;-84
2022/07/29 11:01:51;;;;;;;5.18;1.67;;;28.20;70.60;;;;;;5070380;28;20377;-85
2022/07/29 11:04:47;;;;;;;5.85;2.03;;;28.30;69.90;;;;;;5067599;28;20404;-85
2022/07/29 11:07:12;;;;;;;5.13;1.98;;;28.30;71.20;;;;;;5068332;28;20412;-85
2022/07/29 11:09:38;;;;;;;3.43;1.77;;;28.20;71.40;;;;;;5093710;28;20404;-85
2022/07/29 11:12:36;;;;;;;3.50;1.90;;;28.10;70.60;;;;;;5074581;28;20827;-87
2022/07/29 11:15:02;;;;;;;5.10;2.10;;;28.00;71.50;;;;;;5074376;28;20425;-87
2022/07/29 11:17:28;;;;;;;3.67;1.70;;;27.80;71.10;;;;;;5074666;28;20468;-85
2022/07/29 11:20:31;;;;;;;6.57;2.28;;;27.60;70.90;;;;;;5093146;28;20372;-85
2022/07/29 11:22:57;;;;;;;10.95;2.45;;;27.30;71.70;;;;;;5074506;28;20388;-84
2022/07/29 11:25:23;;;;;;;11.93;2.55;;;27.20;72.90;;;;;;5073962;28;20426;-85
2022/07/29 11:27:51;;;;;;;15.40;3.20;;;27.40;73.60;;;;;;5089577;28;20400;-87
2022/07/29 11:30:18;;;;;;;4.43;1.67;;;27.70;73.70;;;;;;5068789;28;20739;-85
2022/07/29 11:32:46;;;;;;;3.83;1.60;;;28.10;70.30;;;;;;5078989;28;20409;-83
2022/07/29 11:35:17;;;;;;;4.55;1.80;;;28.50;68.50;;;;;;5053950;28;20982;-85
2022/07/29 11:37:43;;;;;;;3.78;1.73;;;28.70;68.40;;;;;;5054206;28;20374;-85
2022/07/29 11:40:11;;;;;;;4.25;1.45;;;28.90;69.20;;;;;;5054004;28;20868;-85
2022/07/29 11:42:38;;;;;;;6.00;1.70;;;29.30;68.40;;;;;;5071622;28;20448;-86
2022/07/29 11:45:20;;;;;;;5.65;1.80;;;29.40;67.60;;;;;;5083297;28;20397;-85
2022/07/29 11:47:48;;;;;;;4.47;1.50;;;29.30;67.10;;;;;;5052339;28;20467;-84
2022/07/29 11:50:16;;;;;;;6.72;1.88;;;29.10;67.40;;;;;;5034236;28;20388;-84
2022/07/29 11:52:46;;;;;;;7.30;1.90;;;29.10;67.20;;;;;;5034980;28;20942;-86
2022/07/29 11:55:18;;;;;;;10.10;2.10;;;28.80;68.00;;;;;;5058872;28;20381;-84
2022/07/29 11:57:49;;;;;;;11.48;2.85;;;28.70;67.90;;;;;;5051848;28;20441;-87
2022/07/29 12:00:25;;;;;;;7.40;1.97;;;28.90;69.20;;;;;;5053666;28;20470;-86
2022/07/29 12:02:54;;;;;;;9.98;2.67;;;29.00;69.30;;;;;;5052832;28;20382;-85
2022/07/29 12:05:20;;;;;;;22.50;3.47;;;29.30;70.20;;;;;;5070786;28;20406;-86
2022/07/29 12:07:47;;;;;;;7.80;2.05;;;29.40;68.40;;;;;;5063054;28;20412;-86
2022/07/29 12:10:13;;;;;;;8.32;2.30;;;29.40;68.50;;;;;;5052019;28;20386;-83
2022/07/29 12:12:39;;;;;;;17.80;3.42;;;29.40;68.30;;;;;;5069613;28;20406;-87
2022/07/29 12:15:17;;;;;;;19.67;3.50;;;29.20;68.10;;;;;;5063273;28;20890;-86
2022/07/29 12:17:43;;;;;;;5.85;2.20;;;29.20;68.00;;;;;;5052259;28;20489;-84
2022/07/29 12:20:09;;;;;;;5.75;2.15;;;28.90;68.10;;;;;;5046042;28;20388;-84
2022/07/29 12:22:40;;;;;;;4.50;1.83;;;28.70;68.80;;;;;;5033285;28;20410;-87
2022/07/29 12:25:09;;;;;;;4.07;1.70;;;28.70;69.50;;;;;;5047681;28;20505;-86
2022/07/29 12:27:36;;;;;;;5.63;1.90;;;28.80;68.30;;;;;;5051776;28;20428;-85
2022/07/29 12:30:07;;;;;;;2.85;1.90;;;28.90;70.60;;;;;;5048859;28;20419;-84
2022/07/29 12:32:37;;;;;;;6.57;2.22;;;28.80;69.00;;;;;;5034780;28;20416;-87
2022/07/29 12:35:09;;;;;;;5.22;2.22;;;28.80;69.10;;;;;;5037690;28;20382;-87
2022/07/29 12:37:36;;;;;;;3.08;2.10;;;28.90;68.90;;;;;;5046809;28;20412;-86
2022/07/29 12:40:04;;;;;;;4.40;1.90;;;29.20;71.30;;;;;;5033575;28;20395;-86
2022/07/29 12:42:30;;;;;;;4.30;1.80;;;29.30;69.20;;;;;;5048300;28;20398;-86
2022/07/29 12:44:56;;;;;;;4.57;2.13;;;29.40;67.70;;;;;;5052685;28;20378;-86
2022/07/29 12:47:22;;;;;;;3.50;1.90;;;29.30;67.80;;;;;;5069928;28;20435;-83
2022/07/29 12:49:49;;;;;;;6.07;2.10;;;29.10;68.90;;;;;;5054619;28;20396;-86
2022/07/29 12:52:33;;;;;;;6.35;2.22;;;29.00;69.30;;;;;;5047770;28;20493;-86
2022/07/29 12:55:02;;;;;;;4.30;1.77;;;29.00;71.20;;;;;;5058604;28;20380;-86
2022/07/29 12:57:28;;;;;;;3.33;2.13;;;29.00;70.50;;;;;;5050557;28;20418;-87
2022/07/29 13:00:12;;;;;;;4.47;2.20;;;28.90;71.10;;;;;;5051507;28;20390;-87